Time;durP1;ratioP1;P1;durP2;ratioP2;P2;SDS_P1;SDS_P2;PMS_P1;PMS_P2;Temp;Humidity;BMP_temperature;BMP_pressure;BME280_temperature;BME280_humidity;BME280_pressure;Samples;Min_cycle;Max_cycle;Signal;HPM_P1;HPM_P2
2022/12/05 00:00:30;;;;;;;50.67;30.17;;;;;;;3.68;73.81;101662.16;5042402;28;20026;-61
2022/12/05 00:02:55;;;;;;;55.03;30.92;;;;;;;3.70;73.73;101662.84;5030585;28;20064;-62
2022/12/05 00:05:21;;;;;;;57.08;33.22;;;;;;;3.74;74.01;101652.34;5031369;28;20415;-62
2022/12/05 00:07:46;;;;;;;55.00;32.33;;;;;;;3.74;73.95;101669.66;5042559;28;20099;-62
2022/12/05 00:10:12;;;;;;;49.35;30.58;;;;;;;3.75;73.40;101670.50;5039277;28;20032;-62
2022/12/05 00:12:37;;;;;;;56.75;33.00;;;;;;;3.72;74.11;101670.88;5045374;28;20065;-62
2022/12/05 00:15:03;;;;;;;56.20;33.75;;;;;;;3.68;73.90;101665.75;5032443;28;20374;-62
2022/12/05 00:17:30;;;;;;;55.83;31.52;;;;;;;3.65;74.00;101666.13;5040445;28;20119;-62
2022/12/05 00:19:55;;;;;;;50.78;31.45;;;;;;;3.67;74.27;101674.19;5029354;28;20359;-62
2022/12/05 00:22:21;;;;;;;54.78;32.22;;;;;;;3.67;74.51;101675.03;5040411;28;20040;-62
2022/12/05 00:24:46;;;;;;;56.72;32.80;;;;;;;3.69;74.05;101666.59;5042109;28;20090;-61
2022/12/05 00:27:11;;;;;;;57.10;34.25;;;;;;;3.72;74.68;101679.09;5043993;28;20037;-62
2022/12/05 00:29:37;;;;;;;54.63;32.83;;;;;;;3.71;73.96;101674.66;5047222;28;20090;-62
2022/12/05 00:32:02;;;;;;;53.15;33.38;;;;;;;3.70;74.53;101671.06;5044225;28;20033;-62
2022/12/05 00:34:27;;;;;;;53.75;32.95;;;;;;;3.70;74.42;101662.84;5033734;28;20765;-62
2022/12/05 00:36:52;;;;;;;55.72;33.20;;;;;;;3.69;74.38;101661.09;5031991;28;20522;-62
2022/12/05 00:39:18;;;;;;;54.67;32.55;;;;;;;3.71;74.38;101656.28;5042091;28;20036;-62
2022/12/05 00:41:43;;;;;;;58.17;33.85;;;;;;;3.72;74.50;101649.75;5046736;28;20563;-62
2022/12/05 00:44:10;;;;;;;57.08;33.72;;;;;;;3.73;74.69;101656.09;5036446;28;20041;-62
2022/12/05 00:46:36;;;;;;;54.33;32.35;;;;;;;3.74;74.09;101649.59;5042103;28;20124;-62
2022/12/05 00:49:04;;;;;;;57.88;34.03;;;;;;;3.76;74.51;101661.22;5036283;28;20116;-62
2022/12/05 00:51:33;;;;;;;57.13;33.63;;;;;;;3.74;74.54;101655.06;5040655;28;20025;-62
2022/12/05 00:54:01;;;;;;;55.90;32.50;;;;;;;3.74;74.79;101655.06;5040847;28;20492;-62
2022/12/05 00:56:28;;;;;;;60.13;33.78;;;;;;;3.69;74.49;101651.00;5037257;28;20029;-62
2022/12/05 00:58:55;;;;;;;60.72;35.30;;;;;;;3.69;74.98;101656.50;5037638;28;20053;-62
2022/12/05 01:01:21;;;;;;;56.30;34.10;;;;;;;3.63;74.71;101657.22;5040957;28;20541;-62
2022/12/05 01:03:47;;;;;;;58.25;34.08;;;;;;;3.64;74.89;101656.19;5039699;28;20614;-62
2022/12/05 01:06:15;;;;;;;56.33;34.85;;;;;;;3.66;74.73;101659.59;5040148;28;20045;-62
2022/12/05 01:08:40;;;;;;;55.60;33.28;;;;;;;3.71;74.66;101663.69;5047418;28;20036;-62
2022/12/05 01:11:07;;;;;;;59.58;35.55;;;;;;;3.72;74.69;101665.38;5039214;28;20033;-63
2022/12/05 01:13:33;;;;;;;58.35;35.92;;;;;;;3.73;74.38;101670.66;5047895;28;20148;-62
2022/12/05 01:15:58;;;;;;;53.70;33.45;;;;;;;3.74;74.74;101668.81;5040751;28;20513;-62
2022/12/05 01:18:28;;;;;;;57.42;35.50;;;;;;;3.76;74.99;101670.31;5048766;28;20044;-62
2022/12/05 01:20:53;;;;;;;53.47;33.25;;;;;;;3.77;74.90;101668.41;5038350;28;20539;-62
2022/12/05 01:23:20;;;;;;;53.92;33.55;;;;;;;3.77;74.96;101668.41;5048478;28;20108;-62
2022/12/05 01:25:48;;;;;;;57.30;35.70;;;;;;;3.76;74.80;101673.03;5031560;28;20044;-62
2022/12/05 01:28:14;;;;;;;58.30;33.72;;;;;;;3.78;74.83;101675.63;5044102;28;20358;-62
2022/12/05 01:30:42;;;;;;;54.83;34.03;;;;;;;3.78;74.66;101672.88;5035122;28;20030;-62
2022/12/05 01:33:08;;;;;;;60.45;34.88;;;;;;;3.78;74.42;101675.63;5048722;28;20029;-62
2022/12/05 01:35:35;;;;;;;55.80;33.53;;;;;;;3.77;74.46;101680.22;5040104;28;20051;-60
2022/12/05 01:38:01;;;;;;;53.22;34.38;;;;;;;3.78;74.39;101676.47;5049446;28;20045;-60
2022/12/05 01:40:27;;;;;;;55.42;33.95;;;;;;;3.81;74.81;101686.22;5037079;28;20030;-61
2022/12/05 01:42:52;;;;;;;51.88;32.47;;;;;;;3.82;74.44;101682.44;5047824;28;20041;-62
2022/12/05 01:45:30;;;;;;;56.17;34.53;;;;;;;3.84;74.67;101677.59;5032668;28;20037;-61
2022/12/05 01:47:55;;;;;;;58.42;33.83;;;;;;;3.84;74.80;101683.09;5037966;28;20076;-61
2022/12/05 01:50:21;;;;;;;57.97;33.50;;;;;;;3.86;74.92;101692.00;5031751;28;20064;-61
2022/12/05 01:52:46;;;;;;;52.90;33.13;;;;;;;3.85;74.56;101690.28;5033323;28;20041;-61
2022/12/05 01:55:15;;;;;;;57.53;34.78;;;;;;;3.86;74.46;101700.25;5027834;28;20110;-61
2022/12/05 01:57:41;;;;;;;57.13;33.35;;;;;;;3.86;74.91;101694.75;5030980;28;20083;-61
2022/12/05 02:00:13;;;;;;;53.95;33.47;;;;;;;3.87;74.76;101697.31;5031920;28;20026;-61
2022/12/05 02:02:47;;;;;;;56.00;33.40;;;;;;;3.89;74.51;101706.22;5036311;28;20029;-61
2022/12/05 02:05:19;;;;;;;59.42;34.75;;;;;;;3.92;74.82;101699.47;5040393;28;20074;-61
2022/12/05 02:07:46;;;;;;;60.10;34.58;;;;;;;3.93;74.47;101703.94;5031786;28;20053;-61
2022/12/05 02:10:11;;;;;;;56.33;33.13;;;;;;;3.92;74.82;101702.22;5024477;28;20030;-62
2022/12/05 02:12:38;;;;;;;52.03;32.78;;;;;;;3.92;74.48;101707.72;5028070;28;20025;-61
2022/12/05 02:15:22;;;;;;;57.67;34.38;;;;;;;3.95;74.42;101704.59;5038535;28;20033;-61
2022/12/05 02:18:15;;;;;;;52.53;33.20;;;;;;;3.97;74.71;101697.03;5041952;28;20085;-61
2022/12/05 02:21:09;;;;;;;52.95;33.30;;;;;;;3.96;74.79;101702.69;5014058;28;20061;-61
2022/12/05 02:23:40;;;;;;;55.15;33.17;;;;;;;3.94;74.55;101691.91;5025855;28;20033;-61
2022/12/05 02:26:40;;;;;;;56.22;33.08;;;;;;;3.99;74.74;101700.44;5030626;28;20037;-61
2022/12/05 02:29:43;;;;;;;57.17;34.65;;;;;;;3.99;74.72;101694.94;5041660;28;20052;-61
2022/12/05 02:32:31;;;;;;;57.90;33.17;;;;;;;3.98;74.84;101690.50;5033029;28;20080;-61
2022/12/05 02:35:02;;;;;;;58.90;33.63;;;;;;;3.97;74.45;101685.16;5028346;28;20053;-61
2022/12/05 02:37:35;;;;;;;53.28;33.75;;;;;;;3.97;74.74;101683.31;5047646;28;20040;-61
2022/12/05 02:40:18;;;;;;;56.33;33.08;;;;;;;4.00;74.64;101695.78;5027723;28;20029;-62
2022/12/05 02:43:07;;;;;;;53.47;33.15;;;;;;;4.01;74.79;101689.25;5036187;28;20108;-61
2022/12/05 02:45:36;;;;;;;57.55;33.55;;;;;;;4.00;74.68;101687.53;5037804;28;20059;-61
2022/12/05 02:48:04;;;;;;;57.15;33.65;;;;;;;3.99;75.13;101688.59;5044110;28;20568;-61
2022/12/05 02:50:36;;;;;;;56.60;33.45;;;;;;;4.01;74.74;101684.63;5035645;28;20385;-62
2022/12/05 02:53:10;;;;;;;57.13;34.10;;;;;;;4.01;75.06;101684.63;5031402;28;20115;-61
2022/12/05 02:55:37;;;;;;;54.22;33.08;;;;;;;4.01;74.80;101692.00;5028746;28;20045;-61
2022/12/05 02:58:10;;;;;;;54.67;34.58;;;;;;;4.01;74.97;101697.47;5026228;28;20067;-61
2022/12/05 03:00:39;;;;;;;59.13;34.90;;;;;;;4.02;75.23;101697.31;5029817;28;20017;-61
2022/12/05 03:03:15;;;;;;;51.55;32.42;;;;;;;4.03;75.31;101698.16;5042670;28;20026;-61
2022/12/05 03:05:53;;;;;;;53.45;33.70;;;;;;;4.05;75.31;101696.06;5031689;28;20031;-61
2022/12/05 03:08:23;;;;;;;56.95;34.15;;;;;;;4.04;74.91;101700.72;5028205;28;20029;-61
2022/12/05 03:10:52;;;;;;;56.10;33.67;;;;;;;4.06;75.35;101700.53;5031405;28;20037;-61
2022/12/05 03:13:24;;;;;;;61.08;36.00;;;;;;;4.05;75.25;101694.19;5031187;28;20044;-61
2022/12/05 03:15:54;;;;;;;60.17;34.97;;;;;;;4.07;75.00;101696.75;5029676;28;20056;-61
2022/12/05 03:18:28;;;;;;;56.05;33.40;;;;;;;4.03;75.06;101690.78;5031578;28;20025;-62
2022/12/05 03:21:01;;;;;;;60.83;34.88;;;;;;;4.05;75.34;101691.44;5025394;28;20072;-61
2022/12/05 03:23:33;;;;;;;;;;;;;;;4.14;74.72;101698.53;5028304;28;20029;-61
2022/12/05 03:26:16;;;;;;;53.63;31.98;;;;;;;4.09;75.20;101697.41;5041675;28;19917;-61
2022/12/05 03:28:54;;;;;;;53.80;33.35;;;;;;;4.06;75.06;101697.78;5040302;28;20040;-61
2022/12/05 03:31:26;;;;;;;59.40;35.28;;;;;;;4.05;75.12;101691.44;5030359;28;20133;-61
2022/12/05 03:33:57;;;;;;;56.45;33.63;;;;;;;4.06;75.75;101692.28;5025624;28;20076;-61
2022/12/05 03:36:31;;;;;;;57.13;35.05;;;;;;;4.05;75.89;101696.06;5030850;28;20524;-61
2022/12/05 03:39:04;;;;;;;54.83;32.47;;;;;;;4.08;75.24;101687.44;5044903;28;20085;-61
2022/12/05 03:41:39;;;;;;;55.72;33.35;;;;;;;4.08;75.90;101690.19;5029922;28;20082;-61
2022/12/05 03:44:07;;;;;;;60.67;35.45;;;;;;;4.09;75.85;101683.69;5034011;28;20037;-61
2022/12/05 03:46:42;;;;;;;54.42;32.63;;;;;;;4.08;75.52;101688.28;5042785;28;20078;-61
2022/12/05 03:49:24;;;;;;;52.05;32.03;;;;;;;4.11;75.91;101693.41;5048906;28;20029;-61
2022/12/05 03:52:19;;;;;;;55.03;32.90;;;;;;;4.12;75.53;101689.63;5023324;28;20551;-62
2022/12/05 03:54:50;;;;;;;57.40;33.22;;;;;;;4.12;75.91;101691.53;5028019;28;20128;-61
2022/12/05 03:57:21;;;;;;;60.17;34.00;;;;;;;4.14;75.78;101686.69;5020598;28;20025;-61
2022/12/05 03:59:55;;;;;;;56.47;33.97;;;;;;;4.09;76.01;101689.19;5014218;28;20041;-61
2022/12/05 04:02:27;;;;;;;58.45;34.85;;;;;;;4.11;75.70;101696.16;5026965;28;20040;-61
2022/12/05 04:05:03;;;;;;;55.05;32.90;;;;;;;4.12;75.52;101699.75;5027850;28;20041;-61
2022/12/05 04:07:33;;;;;;;59.38;33.92;;;;;;;4.11;75.96;101698.91;5021927;28;20037;-60
2022/12/05 04:10:03;;;;;;;57.65;34.78;;;;;;;4.11;76.16;101690.66;5022504;28;20831;-60
2022/12/05 04:12:31;;;;;;;56.90;33.35;;;;;;;4.10;75.73;101694.47;5029469;28;20033;-61
2022/12/05 04:15:00;;;;;;;56.30;34.80;;;;;;;4.10;75.86;101696.38;5033778;28;20021;-61
2022/12/05 04:17:45;;;;;;;54.30;34.17;;;;;;;4.15;75.92;101696.63;5047899;28;20021;-62
2022/12/05 04:23:03;;;;;;;57.80;32.05;;;;;;;4.11;75.87;101707.16;5025362;28;20053;-61
2022/12/05 04:25:38;;;;;;;51.78;32.95;;;;;;;4.09;76.18;101701.00;5020236;28;20053;-61
2022/12/05 04:28:17;;;;;;;52.75;31.38;;;;;;;4.12;76.28;101705.25;5034759;28;20152;-61
2022/12/05 04:30:53;;;;;;;53.17;32.50;;;;;;;4.11;76.18;101707.16;5010502;28;20041;-61
2022/12/05 04:33:39;;;;;;;56.58;33.17;;;;;;;4.16;76.53;101707.44;5009564;28;20038;-61
2022/12/05 04:36:10;;;;;;;51.60;32.63;;;;;;;4.13;76.45;101706.97;5013204;28;20049;-61
2022/12/05 04:38:48;;;;;;;56.22;33.65;;;;;;;4.14;76.49;101709.53;5030109;28;20037;-60
2022/12/05 04:41:19;;;;;;;54.38;32.65;;;;;;;4.14;76.69;101715.03;5030468;28;20036;-61
2022/12/05 04:43:47;;;;;;;52.35;33.40;;;;;;;4.14;76.15;101708.69;5041672;28;20374;-61
2022/12/05 04:46:15;;;;;;;52.38;31.90;;;;;;;4.16;76.51;101717.56;5052869;28;20114;-61
2022/12/05 04:48:47;;;;;;;52.75;32.60;;;;;;;4.16;76.53;101718.41;5046426;28;20082;-61
2022/12/05 04:51:17;;;;;;;54.80;32.73;;;;;;;4.21;76.70;101715.13;5032191;28;20037;-61
2022/12/05 04:53:44;;;;;;;52.75;33.50;;;;;;;4.18;76.26;101719.09;5030691;28;20280;-61
2022/12/05 04:56:15;;;;;;;54.47;33.13;;;;;;;4.19;76.79;101711.69;5026372;28;20041;-61
2022/12/05 04:58:40;;;;;;;54.92;32.97;;;;;;;4.19;76.71;101709.81;5021929;28;20453;-61
2022/12/05 05:01:12;;;;;;;53.50;33.33;;;;;;;4.18;76.99;101710.84;5030396;28;20028;-61
2022/12/05 05:03:43;;;;;;;55.50;31.83;;;;;;;4.18;76.81;101710.84;5033470;28;20477;-61
2022/12/05 05:06:13;;;;;;;53.72;32.10;;;;;;;4.19;76.40;101701.56;5035088;28;20519;-61
2022/12/05 05:08:49;;;;;;;52.20;31.40;;;;;;;4.21;76.56;101708.78;5041987;28;20481;-61
2022/12/05 05:11:19;;;;;;;51.28;32.42;;;;;;;4.21;76.76;101711.53;5028802;28;20478;-61
2022/12/05 05:13:45;;;;;;;54.97;32.33;;;;;;;4.23;76.97;101712.19;5032268;28;20461;-61
2022/12/05 05:16:20;;;;;;;49.97;31.42;;;;;;;4.23;76.84;101718.53;5029835;28;20033;-61
2022/12/05 05:18:47;;;;;;;53.08;31.60;;;;;;;4.24;76.41;101720.22;5016088;28;20037;-61
2022/12/05 05:21:36;;;;;;;50.85;31.48;;;;;;;4.28;76.94;101723.44;5012513;28;20022;-61
2022/12/05 05:24:02;;;;;;;51.25;32.15;;;;;;;4.26;76.86;101731.88;5019093;28;20028;-61
2022/12/05 05:26:29;;;;;;;54.92;31.98;;;;;;;4.24;76.95;101724.88;5030734;28;20037;-61
2022/12/05 05:28:56;;;;;;;49.85;31.25;;;;;;;4.27;77.12;101730.00;5031893;28;20048;-61
2022/12/05 05:31:21;;;;;;;52.03;29.40;;;;;;;4.28;76.79;101716.03;5030839;28;20040;-62
2022/12/05 05:33:51;;;;;;;50.67;32.05;;;;;;;4.27;77.15;101727.25;5027424;28;20026;-62
2022/12/05 05:36:17;;;;;;;49.42;30.23;;;;;;;4.27;77.13;101727.25;5031470;28;20447;-62
2022/12/05 05:38:44;;;;;;;49.95;30.50;;;;;;;4.26;77.18;101722.78;5041779;28;20030;-61
2022/12/05 05:41:18;;;;;;;49.15;30.95;;;;;;;4.25;77.30;101723.84;5029348;28;20041;-62
2022/12/05 05:43:44;;;;;;;48.22;30.63;;;;;;;4.24;77.40;101722.97;5012175;28;20112;-62
2022/12/05 05:46:10;;;;;;;51.78;31.00;;;;;;;4.25;77.42;101726.59;5022000;28;20037;-62
2022/12/05 05:48:36;;;;;;;48.90;30.17;;;;;;;4.26;77.45;101722.78;5030548;28;20041;-62
2022/12/05 05:51:03;;;;;;;47.35;29.17;;;;;;;4.27;77.49;101727.25;5026292;28;20030;-62
2022/12/05 05:53:31;;;;;;;45.53;29.98;;;;;;;4.27;77.68;101722.59;5030687;28;20064;-62
2022/12/05 05:56:01;;;;;;;43.90;29.27;;;;;;;4.27;77.44;101736.34;5015769;28;20036;-62
2022/12/05 05:58:27;;;;;;;43.90;28.63;;;;;;;4.28;76.68;101737.19;5020863;28;20525;-62
2022/12/05 06:00:52;;;;;;;46.75;29.20;;;;;;;4.29;77.81;101734.25;5026426;28;20025;-61
2022/12/05 06:03:17;;;;;;;47.78;28.75;;;;;;;4.29;77.64;101738.91;5025791;28;20057;-62
2022/12/05 06:05:42;;;;;;;46.65;29.70;;;;;;;4.31;77.68;101739.56;5029836;28;20029;-62
2022/12/05 06:08:08;;;;;;;48.40;29.27;;;;;;;4.30;77.72;101735.13;5030062;28;20072;-62
2022/12/05 06:10:33;;;;;;;46.40;29.02;;;;;;;4.30;77.85;101740.59;5042423;28;20036;-62
2022/12/05 06:12:59;;;;;;;44.78;28.92;;;;;;;4.28;77.83;101735.28;5024393;28;20022;-62
2022/12/05 06:15:24;;;;;;;46.25;28.95;;;;;;;4.31;77.74;101736.81;5028950;28;20113;-62
2022/12/05 06:17:49;;;;;;;45.47;29.33;;;;;;;4.28;77.79;101746.28;5025875;28;20112;-62
2022/12/05 06:20:15;;;;;;;46.38;29.05;;;;;;;4.31;77.71;101745.06;5025705;28;20035;-62
2022/12/05 06:22:40;;;;;;;46.63;28.98;;;;;;;4.31;78.02;101745.06;5051796;28;20033;-62
2022/12/05 06:25:07;;;;;;;49.08;29.20;;;;;;;4.32;77.76;101749.50;5050955;28;20032;-62
2022/12/05 06:27:33;;;;;;;47.20;28.83;;;;;;;4.32;77.73;101741.25;5036488;28;20492;-62
2022/12/05 06:29:58;;;;;;;45.10;28.83;;;;;;;4.33;77.56;101745.72;5051519;28;20033;-61
2022/12/05 06:32:24;;;;;;;43.85;27.40;;;;;;;4.33;77.58;101743.84;5034372;28;20424;-61
2022/12/05 06:34:50;;;;;;;43.90;27.15;;;;;;;4.33;77.85;101743.84;5028908;28;20068;-61
2022/12/05 06:37:15;;;;;;;41.15;27.33;;;;;;;4.35;77.86;101744.47;5025784;28;20522;-61
2022/12/05 06:39:40;;;;;;;44.08;27.45;;;;;;;4.36;77.78;101742.56;5043611;28;20686;-61
2022/12/05 06:42:06;;;;;;;44.65;28.00;;;;;;;4.36;77.87;101748.97;5030962;28;20567;-61
2022/12/05 06:44:31;;;;;;;41.05;26.75;;;;;;;4.36;77.62;101748.06;5039995;28;20461;-60
2022/12/05 06:46:56;;;;;;;41.58;27.08;;;;;;;4.37;77.75;101747.06;5044518;28;20041;-61
2022/12/05 06:49:31;;;;;;;40.90;27.45;;;;;;;4.37;77.89;101747.06;5041567;28;20032;-61
2022/12/05 06:51:56;;;;;;;43.13;27.10;;;;;;;4.40;77.81;101749.41;5032288;28;20033;-61
2022/12/05 06:54:21;;;;;;;41.95;27.25;;;;;;;4.41;77.61;101748.38;5028299;28;20416;-61
2022/12/05 06:56:46;;;;;;;41.58;26.55;;;;;;;4.42;77.78;101750.91;5028085;28;20064;-61
2022/12/05 06:59:12;;;;;;;39.65;27.30;;;;;;;4.41;77.79;101753.88;5029739;28;20040;-61
2022/12/05 07:01:37;;;;;;;41.03;27.48;;;;;;;4.42;77.81;101753.66;5038882;28;20460;-61
2022/12/05 07:04:06;;;;;;;42.70;27.40;;;;;;;4.41;78.15;101760.22;5039351;28;20033;-61
2022/12/05 07:06:33;;;;;;;44.05;27.95;;;;;;;4.42;77.69;101764.66;5024966;28;20080;-62
2022/12/05 07:08:58;;;;;;;43.88;27.00;;;;;;;4.45;77.77;101762.59;5031273;28;20088;-61
2022/12/05 07:11:24;;;;;;;42.67;26.63;;;;;;;4.43;77.67;101768.25;5022491;28;20061;-61
2022/12/05 07:13:49;;;;;;;36.95;25.80;;;;;;;4.44;77.91;101761.72;5028225;28;20087;-61
2022/12/05 07:16:14;;;;;;;40.20;25.77;;;;;;;4.44;77.82;101775.47;5029742;28;20052;-61
2022/12/05 07:18:39;;;;;;;41.67;26.55;;;;;;;4.47;77.90;101775.09;5030407;28;20144;-61
2022/12/05 07:21:11;;;;;;;39.67;26.10;;;;;;;4.48;78.07;101774.06;5032091;28;20154;-61
2022/12/05 07:23:37;;;;;;;36.50;24.80;;;;;;;4.48;77.53;101779.56;5027951;28;20040;-61
2022/12/05 07:26:07;;;;;;;37.58;25.55;;;;;;;4.49;77.55;101786.75;5035884;28;20033;-61
2022/12/05 07:28:32;;;;;;;36.83;24.30;;;;;;;4.51;77.60;101790.16;5019690;28;20128;-61
2022/12/05 07:31:06;;;;;;;36.35;23.67;;;;;;;4.51;77.59;101789.31;5019325;28;22276;-61
2022/12/05 07:33:31;;;;;;;37.85;24.80;;;;;;;4.51;77.43;101792.06;5048530;28;20040;-61
2022/12/05 07:36:01;;;;;;;35.65;23.13;;;;;;;4.51;77.83;101798.41;5028134;28;20088;-62
2022/12/05 07:38:26;;;;;;;35.25;23.85;;;;;;;4.51;77.40;101798.41;5048489;28;20036;-62
2022/12/05 07:40:52;;;;;;;35.60;24.95;;;;;;;4.53;77.54;101796.34;5039416;28;20453;-62
2022/12/05 07:43:17;;;;;;;36.08;24.13;;;;;;;4.52;77.12;101797.38;5013987;28;20439;-61
2022/12/05 07:45:42;;;;;;;35.30;25.20;;;;;;;4.54;77.53;101792.53;5016928;28;20489;-61
2022/12/05 07:48:08;;;;;;;35.83;24.08;;;;;;;4.53;77.18;101788.09;5023044;28;20040;-61
2022/12/05 07:50:33;;;;;;;34.90;24.05;;;;;;;4.52;77.41;101793.75;5025082;28;20061;-61
2022/12/05 07:53:01;;;;;;;35.70;24.25;;;;;;;4.54;77.70;101798.03;5021659;28;20024;-61
2022/12/05 07:55:26;;;;;;;36.15;24.48;;;;;;;4.52;78.10;101802.88;5011815;28;20037;-61
2022/12/05 07:57:51;;;;;;;36.72;24.75;;;;;;;4.53;77.74;101800.97;5025305;28;20763;-62
2022/12/05 08:00:17;;;;;;;37.47;25.80;;;;;;;4.53;77.71;101800.97;5025741;28;20044;-61
2022/12/05 08:02:43;;;;;;;34.88;24.42;;;;;;;4.55;77.94;101805.22;5022845;28;20122;-61
2022/12/05 08:05:08;;;;;;;35.08;24.58;;;;;;;4.54;78.01;101802.69;5024253;28;20369;-61
2022/12/05 08:07:33;;;;;;;36.25;24.48;;;;;;;4.55;78.05;101807.13;5028112;28;20029;-61
2022/12/05 08:09:58;;;;;;;38.28;24.90;;;;;;;4.54;78.13;101798.03;5023175;28;20149;-61
2022/12/05 08:12:24;;;;;;;39.08;25.30;;;;;;;4.58;77.96;101812.25;5025408;28;20083;-61
2022/12/05 08:14:49;;;;;;;33.42;23.17;;;;;;;4.55;78.47;101813.47;5026517;28;20112;-61
2022/12/05 08:17:14;;;;;;;35.35;24.50;;;;;;;4.55;78.23;101818.97;5017432;28;20467;-61
2022/12/05 08:19:40;;;;;;;36.63;24.60;;;;;;;4.57;78.19;101824.31;5012057;28;20124;-61
2022/12/05 08:22:05;;;;;;;36.65;24.98;;;;;;;4.56;78.15;101828.97;5019073;28;20076;-61
2022/12/05 08:24:30;;;;;;;38.22;25.25;;;;;;;4.59;78.20;101827.69;5030729;28;20068;-60
2022/12/05 08:26:56;;;;;;;35.10;25.00;;;;;;;4.59;78.35;101834.03;5041776;28;20033;-60
2022/12/05 08:29:21;;;;;;;36.03;24.17;;;;;;;4.58;78.67;101829.59;5027760;28;20033;-60
2022/12/05 08:31:49;;;;;;;38.85;24.85;;;;;;;4.59;78.47;101836.78;5037559;28;20044;-60
2022/12/05 08:34:17;;;;;;;37.15;25.27;;;;;;;4.57;78.59;101833.41;5038901;28;20030;-60
2022/12/05 08:36:43;;;;;;;38.50;25.17;;;;;;;4.59;78.08;101834.03;5029435;28;20493;-62
2022/12/05 08:39:13;;;;;;;35.60;24.77;;;;;;;4.59;79.07;101835.94;5017037;28;20087;-63
2022/12/05 08:41:39;;;;;;;38.70;24.42;;;;;;;4.60;78.65;101841.28;5034326;28;20037;-62
2022/12/05 08:44:05;;;;;;;33.85;23.80;;;;;;;4.62;78.55;101844.69;5029544;28;20030;-63
2022/12/05 08:46:32;;;;;;;36.58;24.70;;;;;;;4.62;78.36;101847.44;5025543;28;20029;-61
2022/12/05 08:48:58;;;;;;;37.72;24.52;;;;;;;4.65;78.56;101840.69;5023358;28;20041;-63
2022/12/05 08:51:23;;;;;;;34.65;23.85;;;;;;;4.64;78.88;101834.34;5021797;28;20156;-63
2022/12/05 08:53:48;;;;;;;34.63;23.83;;;;;;;4.63;78.63;101835.38;5028777;28;20044;-62
2022/12/05 08:56:14;;;;;;;34.85;23.95;;;;;;;4.66;78.59;101836.91;5034378;28;20101;-64
2022/12/05 08:58:40;;;;;;;34.88;23.77;;;;;;;4.66;78.93;101847.91;5047504;28;20040;-62
2022/12/05 09:01:12;;;;;;;35.30;23.85;;;;;;;4.66;78.83;101848.75;5045338;28;20039;-62
2022/12/05 09:03:38;;;;;;;35.22;24.50;;;;;;;4.68;78.60;101851.34;5036492;28;20033;-63
2022/12/05 09:06:08;;;;;;;37.35;24.15;;;;;;;4.68;78.86;101852.19;5030516;28;20392;-62
2022/12/05 09:08:34;;;;;;;37.45;24.83;;;;;;;4.69;79.07;101850.28;5021494;28;20294;-61
2022/12/05 09:11:05;;;;;;;35.50;23.65;;;;;;;4.68;79.10;101856.84;5027635;28;20544;-61
2022/12/05 09:13:30;;;;;;;34.17;23.02;;;;;;;4.71;78.86;101858.31;5025634;28;20116;-61
2022/12/05 09:15:55;;;;;;;37.75;24.95;;;;;;;4.71;78.83;101864.69;5024805;28;20117;-60
2022/12/05 09:18:20;;;;;;;36.05;24.50;;;;;;;4.72;78.86;101865.56;5027166;28;20029;-62
2022/12/05 09:20:46;;;;;;;37.08;24.52;;;;;;;4.73;79.19;101856.25;5038015;28;20029;-60
2022/12/05 09:23:11;;;;;;;36.60;23.60;;;;;;;4.74;78.70;101866.22;5049061;28;20885;-61
2022/12/05 09:25:36;;;;;;;36.35;24.27;;;;;;;4.75;78.40;101870.66;5028492;28;20042;-63
2022/12/05 09:28:02;;;;;;;34.30;23.42;;;;;;;4.74;78.92;101868.97;5025937;28;20029;-61
2022/12/05 09:30:27;;;;;;;34.88;24.27;;;;;;;4.75;78.58;101876.16;5039228;28;20025;-61
2022/12/05 09:32:52;;;;;;;38.85;24.65;;;;;;;4.75;78.94;101871.50;5037591;28;20059;-61
2022/12/05 09:35:17;;;;;;;36.20;23.60;;;;;;;4.76;78.84;101878.75;5027763;28;20053;-61
2022/12/05 09:37:43;;;;;;;35.15;24.50;;;;;;;4.77;78.65;101880.44;5040031;28;20116;-61
2022/12/05 09:40:17;;;;;;;37.75;25.15;;;;;;;4.77;79.33;101874.94;5043599;28;20029;-61
2022/12/05 09:42:57;;;;;;;35.90;23.73;;;;;;;4.81;79.35;101881.75;5023100;28;20049;-61
2022/12/05 09:45:30;;;;;;;32.80;23.95;;;;;;;4.82;78.85;101888.09;5030133;28;20111;-61
2022/12/05 09:48:00;;;;;;;;;;;;;;;4.92;78.30;101885.94;5039308;28;20033;-61
2022/12/05 09:50:54;;;;;;;34.90;21.95;;;;;;;4.83;78.64;101889.81;5031466;28;19917;-61
2022/12/05 09:53:29;;;;;;;36.45;22.88;;;;;;;4.84;78.83;101894.28;5020877;28;20052;-62
2022/12/05 09:56:02;;;;;;;33.38;21.42;;;;;;;4.79;78.25;101886.59;5028179;28;20389;-63
2022/12/05 09:58:45;;;;;;;30.30;21.65;;;;;;;4.80;78.57;101893.81;5035374;28;20024;-64
2022/12/05 10:01:32;;;;;;;31.83;21.88;;;;;;;4.83;78.65;101895.31;5026727;28;20041;-63
2022/12/05 10:04:11;;;;;;;31.83;21.88;;;;;;;4.82;78.35;101890.88;5031656;28;20026;-63
2022/12/05 10:07:07;;;;;;;34.63;22.45;;;;;;;4.85;78.66;101891.34;5018421;28;20035;-62
2022/12/05 10:09:53;;;;;;;30.13;20.90;;;;;;;4.84;78.87;101891.53;5021666;28;20934;-63
2022/12/05 10:12:47;;;;;;;30.08;20.05;;;;;;;4.88;78.38;101899.22;5030137;28;20152;-62
2022/12/05 10:15:37;;;;;;;30.27;19.92;;;;;;;4.88;77.95;101884.63;5025162;28;20049;-62
2022/12/05 10:18:08;;;;;;;26.02;19.25;;;;;;;4.87;77.86;101891.13;5024982;28;20032;-63
2022/12/05 10:20:40;;;;;;;26.13;18.67;;;;;;;4.86;78.14;101889.44;5033698;28;20032;-62
2022/12/05 10:23:21;;;;;;;28.42;19.15;;;;;;;4.87;77.93;101880.13;5036417;28;20036;-61
2022/12/05 10:25:58;;;;;;;22.05;17.00;;;;;;;4.89;77.71;101880.81;5026102;28;21023;-62
2022/12/05 10:28:38;;;;;;;23.35;17.50;;;;;;;4.89;77.89;101886.31;5041172;28;20037;-64
2022/12/05 10:31:08;;;;;;;21.58;16.10;;;;;;;4.86;77.37;101892.19;5029311;28;20040;-61
2022/12/05 10:33:44;;;;;;;21.00;15.75;;;;;;;4.87;77.25;101888.38;5031514;28;20029;-63
2022/12/05 10:36:12;;;;;;;21.65;16.20;;;;;;;4.88;77.35;101890.13;5029629;28;20053;-63
2022/12/05 10:38:38;;;;;;;22.02;15.77;;;;;;;4.87;76.79;101885.63;5032533;28;20036;-61
2022/12/05 10:41:07;;;;;;;19.25;14.38;;;;;;;4.87;76.93;101893.88;5033461;28;20496;-61
2022/12/05 10:43:36;;;;;;;17.90;14.40;;;;;;;4.87;77.15;101891.13;5036864;28;20025;-62
2022/12/05 10:46:02;;;;;;;19.08;14.85;;;;;;;4.89;76.85;101894.56;5040070;28;20025;-61
2022/12/05 10:48:30;;;;;;;21.00;15.48;;;;;;;4.91;76.58;101886.97;5034011;28;20033;-61
2022/12/05 10:50:57;;;;;;;19.70;15.00;;;;;;;4.90;76.96;101888.84;5038043;28;20027;-62
2022/12/05 10:53:26;;;;;;;20.30;15.25;;;;;;;4.91;77.10;101886.97;5036293;28;20025;-62
2022/12/05 10:55:53;;;;;;;19.20;14.13;;;;;;;4.90;76.90;101888.84;5026723;28;20391;-62
2022/12/05 10:58:27;;;;;;;20.33;16.00;;;;;;;4.92;76.90;101896.94;5040158;28;20033;-62
2022/12/05 11:00:56;;;;;;;19.63;15.18;;;;;;;4.90;76.69;101888.00;5015498;28;20034;-62
2022/12/05 11:03:31;;;;;;;19.02;14.85;;;;;;;4.93;76.65;101890.38;5030169;28;20420;-62
2022/12/05 11:05:59;;;;;;;18.52;14.95;;;;;;;4.91;76.71;101887.84;5027050;28;20041;-63
2022/12/05 11:08:30;;;;;;;20.23;14.80;;;;;;;4.93;77.41;101887.63;5031466;28;20064;-61
2022/12/05 11:11:06;;;;;;;20.50;15.45;;;;;;;4.93;76.89;101884.88;5040374;28;20024;-61
2022/12/05 11:13:33;;;;;;;19.58;14.75;;;;;;;4.92;76.74;101877.69;5033661;28;21809;-63
2022/12/05 11:15:59;;;;;;;20.77;15.27;;;;;;;4.95;77.19;101877.28;5030443;28;20045;-68
2022/12/05 11:18:31;;;;;;;19.30;15.07;;;;;;;4.93;77.05;101874.72;5025124;28;20510;-63
2022/12/05 11:21:08;;;;;;;18.60;14.60;;;;;;;4.98;77.43;101879.66;5027005;28;20116;-65
2022/12/05 11:23:33;;;;;;;18.85;14.52;;;;;;;4.95;76.66;101871.78;5031601;28;20044;-63
2022/12/05 11:25:59;;;;;;;20.52;15.40;;;;;;;4.96;77.32;101873.50;5034501;28;20147;-66
2022/12/05 11:28:35;;;;;;;19.73;15.60;;;;;;;4.99;77.43;101877.75;5033914;28;20396;-63
2022/12/05 11:31:13;;;;;;;19.30;15.07;;;;;;;5.00;77.24;101879.47;5025649;28;20442;-64